Time;durP1;ratioP1;P1;durP2;ratioP2;P2;SDS_P1;SDS_P2;PMS_P1;PMS_P2;Temp;Humidity;BMP_temperature;BMP_pressure;BME280_temperature;BME280_humidity;BME280_pressure;Samples;Min_cycle;Max_cycle;Signal;HPM_P1;HPM_P2
2023/09/15 00:00:32;;;;;;;7.00;3.30;;;;;;;12.98;86.60;101243.09;105551;1252;69167;-57
2023/09/15 00:03:20;;;;;;;6.40;3.10;;;;;;;12.97;86.67;101242.06;105495;1256;69286;-58
2023/09/15 00:05:49;;;;;;;6.40;3.00;;;;;;;12.94;86.82;101247.95;105531;1251;74528;-58
2023/09/15 00:08:17;;;;;;;5.80;2.80;;;;;;;12.95;87.02;101249.15;105478;1256;82567;-57
2023/09/15 00:10:47;;;;;;;5.70;2.90;;;;;;;12.97;87.14;101255.94;105583;1256;73682;-57
2023/09/15 00:13:16;;;;;;;;;;;;;;;12.97;87.30;101256.63;105546;1256;69033;-57
2023/09/15 00:15:45;;;;;;;4.80;2.10;;;;;;;12.96;87.69;101250.86;105522;1256;69121;-57
2023/09/15 00:18:13;;;;;;;6.00;2.80;;;;;;;12.93;87.49;101253.05;105574;1253;73831;-58
2023/09/15 00:20:41;;;;;;;6.20;2.60;;;;;;;12.86;87.13;101254.89;105554;1253;83675;-57
2023/09/15 00:23:10;;;;;;;4.00;2.50;;;;;;;12.75;86.73;101258.91;105454;1257;73631;-58
2023/09/15 00:25:39;;;;;;;6.20;2.50;;;;;;;12.65;86.93;101255.73;105607;1251;69268;-58
2023/09/15 00:28:09;;;;;;;4.50;2.60;;;;;;;12.54;86.73;101257.84;105614;1256;69072;-58
2023/09/15 00:30:39;;;;;;;5.60;2.60;;;;;;;12.45;86.78;101256.70;105568;1255;73559;-57
2023/09/15 00:33:07;;;;;;;5.60;2.60;;;;;;;12.34;86.84;101255.64;105530;1253;83683;-56
2023/09/15 00:35:36;;;;;;;7.00;2.50;;;;;;;12.25;86.56;101256.99;105508;1257;73689;-57
2023/09/15 00:38:04;;;;;;;5.70;2.90;;;;;;;12.15;86.75;101259.19;105591;1252;69070;-57
2023/09/15 00:40:33;;;;;;;7.90;2.70;;;;;;;12.09;86.96;101256.95;105541;1257;69118;-57
2023/09/15 00:43:01;;;;;;;7.20;2.60;;;;;;;12.04;87.27;101258.84;105527;1256;74836;-57
2023/09/15 00:45:30;;;;;;;4.60;2.50;;;;;;;12.08;88.00;101260.11;105550;1251;83321;-57
2023/09/15 00:47:58;;;;;;;6.30;3.20;;;;;;;12.13;88.39;101261.38;105410;1251;72679;-56
2023/09/15 00:50:31;;;;;;;4.60;2.90;;;;;;;12.21;88.82;101260.41;105518;1256;69079;-57
2023/09/15 00:53:05;;;;;;;4.90;2.40;;;;;;;12.31;89.68;101265.91;105503;1255;69202;-57
2023/09/15 00:55:34;;;;;;;4.30;2.50;;;;;;;12.38;89.79;101270.63;105547;1261;74837;-57
2023/09/15 00:58:03;;;;;;;4.20;2.20;;;;;;;12.41;89.67;101273.16;105537;1260;83145;-57
2023/09/15 01:00:32;;;;;;;7.30;2.60;;;;;;;12.41;89.50;101269.98;105562;1256;72637;-57
2023/09/15 01:03:01;;;;;;;4.00;2.70;;;;;;;12.38;88.94;101272.89;105481;1257;69233;-56
2023/09/15 01:05:30;;;;;;;4.50;2.30;;;;;;;12.35;89.10;101272.11;105532;1261;69049;-57
2023/09/15 01:07:59;;;;;;;3.50;2.20;;;;;;;12.32;89.06;101273.06;105526;1258;75249;-57
2023/09/15 01:10:28;;;;;;;4.40;2.70;;;;;;;12.34;89.62;101271.77;105344;1260;83607;-57
2023/09/15 01:12:56;;;;;;;4.80;2.50;;;;;;;12.36;89.59;101273.64;105550;1255;73679;-58
2023/09/15 01:15:34;;;;;;;6.10;2.30;;;;;;;12.36;89.30;101275.75;105547;1256;69130;-56
2023/09/15 01:18:20;;;;;;;6.30;2.10;;;;;;;12.33;89.23;101274.60;105533;1257;69185;-57
2023/09/15 01:21:04;;;;;;;4.00;2.40;;;;;;;12.32;89.31;101276.04;105544;1254;74802;-57
2023/09/15 01:23:47;;;;;;;5.00;2.00;;;;;;;12.31;89.24;101275.55;105526;1255;81762;-57
2023/09/15 01:26:27;;;;;;;3.20;2.20;;;;;;;12.31;89.33;101277.13;105451;1259;73722;-57
2023/09/15 01:29:03;;;;;;;4.40;2.40;;;;;;;12.30;89.57;101274.35;105457;1256;69177;-57
2023/09/15 01:31:32;;;;;;;7.00;2.60;;;;;;;12.35;90.00;101278.23;105501;1256;69081;-57
2023/09/15 01:34:01;;;;;;;5.20;2.90;;;;;;;12.39;90.31;101273.71;105528;1258;73496;-57
2023/09/15 01:36:29;;;;;;;3.40;2.00;;;;;;;12.44;90.63;101276.39;105619;1251;82051;-57
2023/09/15 01:38:58;;;;;;;3.70;2.50;;;;;;;12.50;90.75;101276.02;105568;1262;73908;-57
2023/09/15 01:41:26;;;;;;;5.10;2.50;;;;;;;12.57;91.07;101271.23;105622;1251;69202;-56
2023/09/15 01:43:54;;;;;;;6.50;3.10;;;;;;;12.65;91.25;101271.17;105539;1256;69733;-57
2023/09/15 01:46:26;;;;;;;4.50;3.10;;;;;;;12.73;91.40;101273.02;105655;1255;75485;-57
2023/09/15 01:48:56;;;;;;;4.80;2.90;;;;;;;12.80;91.30;101268.75;105455;1256;82066;-56
2023/09/15 01:51:25;;;;;;;6.30;3.20;;;;;;;12.86;90.91;101269.95;105470;1257;73914;-57
2023/09/15 01:53:54;;;;;;;5.00;2.90;;;;;;;12.92;91.01;101271.53;105349;1268;69265;-57
2023/09/15 01:56:26;;;;;;;6.30;3.40;;;;;;;12.96;90.95;101272.27;105548;1258;69070;-57
2023/09/15 01:58:55;;;;;;;4.20;3.20;;;;;;;12.99;90.93;101276.55;105491;1259;73892;-57
2023/09/15 02:01:23;;;;;;;7.80;3.20;;;;;;;13.02;90.62;101273.48;105534;1260;83369;-56
2023/09/15 02:03:52;;;;;;;4.90;2.80;;;;;;;13.04;90.60;101275.52;105497;1256;71649;-57
2023/09/15 02:06:20;;;;;;;6.50;3.00;;;;;;;13.03;90.47;101271.86;105491;1261;69218;-57
2023/09/15 02:08:49;;;;;;;7.40;3.80;;;;;;;13.02;90.34;101269.78;105509;1255;69234;-57
2023/09/15 02:11:18;;;;;;;6.50;3.50;;;;;;;13.02;90.24;101271.53;105514;1266;74700;-57
2023/09/15 02:13:46;;;;;;;7.00;3.10;;;;;;;13.03;90.21;101273.45;105449;1260;82355;-57
2023/09/15 02:16:14;;;;;;;7.70;3.10;;;;;;;13.03;90.25;101274.67;105543;1257;73072;-57
2023/09/15 02:18:43;;;;;;;6.70;3.40;;;;;;;13.02;90.15;101275.92;105521;1257;69165;-57
2023/09/15 02:21:12;;;;;;;5.60;3.30;;;;;;;13.02;90.04;101274.71;105573;1256;69189;-57
2023/09/15 02:23:41;;;;;;;6.10;3.70;;;;;;;13.01;90.13;101275.08;105628;1257;73263;-57
2023/09/15 02:26:09;;;;;;;8.90;3.80;;;;;;;13.01;90.04;101275.79;105514;1251;82908;-57
2023/09/15 02:28:37;;;;;;;7.10;3.20;;;;;;;13.00;90.13;101275.83;105473;1257;73352;-57
2023/09/15 02:31:06;;;;;;;6.20;3.60;;;;;;;13.01;90.38;101276.66;105501;1252;69391;-57
2023/09/15 02:33:37;;;;;;;9.50;3.40;;;;;;;13.02;90.26;101278.20;105582;1264;69100;-57
2023/09/15 02:36:06;;;;;;;5.90;3.40;;;;;;;13.04;90.44;101280.09;105570;1256;74201;-57
2023/09/15 02:38:35;;;;;;;5.70;3.70;;;;;;;13.06;90.45;101281.23;105600;1256;82831;-56
2023/09/15 02:41:03;;;;;;;6.50;3.40;;;;;;;13.08;90.52;101280.13;105535;1256;73136;-57
2023/09/15 02:43:31;;;;;;;7.70;3.50;;;;;;;13.09;90.54;101279.73;105403;1251;69156;-56
2023/09/15 02:46:04;;;;;;;6.20;3.20;;;;;;;13.10;90.30;101277.77;105572;1251;69112;-57
2023/09/15 02:48:33;;;;;;;7.50;3.70;;;;;;;13.12;90.35;101277.71;105469;1258;74815;-57
2023/09/15 02:51:03;;;;;;;6.80;3.80;;;;;;;13.13;90.19;101280.64;105434;1257;82655;-57
2023/09/15 02:53:31;;;;;;;5.50;3.50;;;;;;;13.14;90.20;101281.66;105570;1255;73900;-57
2023/09/15 02:56:02;;;;;;;6.60;4.00;;;;;;;13.13;90.21;101281.20;105458;1256;69154;-57
2023/09/15 02:58:33;;;;;;;8.30;3.60;;;;;;;13.12;90.41;101280.53;105576;1256;69226;-57
2023/09/15 03:01:13;;;;;;;6.60;3.50;;;;;;;13.13;90.49;101283.79;105550;1255;74879;-57
2023/09/15 03:03:48;;;;;;;6.40;3.80;;;;;;;13.15;90.57;101281.81;105563;1255;83611;-57
2023/09/15 03:06:18;;;;;;;6.00;3.70;;;;;;;13.16;90.55;101280.89;105584;1255;71706;-57
2023/09/15 03:08:47;;;;;;;8.60;4.40;;;;;;;13.15;90.57;101277.40;105524;1257;69150;-57
2023/09/15 03:11:19;;;;;;;8.50;4.00;;;;;;;13.15;90.61;101276.73;105582;1251;69171;-57
2023/09/15 03:13:48;;;;;;;5.90;3.50;;;;;;;13.13;90.73;101279.05;105628;1255;74399;-57
2023/09/15 03:16:16;;;;;;;5.50;3.50;;;;;;;13.12;90.70;101278.05;105589;1256;83596;-57
2023/09/15 03:18:49;;;;;;;5.80;3.40;;;;;;;13.10;90.71;101280.05;105580;1251;73725;-57
2023/09/15 03:21:19;;;;;;;5.50;3.70;;;;;;;13.08;90.82;101283.80;105551;1251;69163;-57
2023/09/15 03:23:49;;;;;;;8.70;4.30;;;;;;;13.07;90.97;101283.65;105565;1255;69096;-57
2023/09/15 03:26:17;;;;;;;5.50;3.70;;;;;;;13.09;91.11;101284.31;105580;1256;72827;-57
2023/09/15 03:28:48;;;;;;;6.50;3.50;;;;;;;13.08;91.20;101282.92;105550;1255;83337;-57
2023/09/15 03:31:17;;;;;;;6.90;3.60;;;;;;;13.09;91.32;101279.92;105426;1257;73928;-57
2023/09/15 03:33:45;;;;;;;6.10;3.90;;;;;;;13.09;91.29;101281.29;105620;1251;69149;-57
2023/09/15 03:36:14;;;;;;;5.70;3.50;;;;;;;13.10;91.27;101282.84;105461;1258;69250;-57
2023/09/15 03:38:42;;;;;;;6.00;3.30;;;;;;;13.10;91.24;101282.31;105485;1257;73925;-57
2023/09/15 03:41:11;;;;;;;8.50;3.70;;;;;;;13.09;91.39;101284.45;105556;1257;81490;-57
2023/09/15 03:43:40;;;;;;;6.80;3.70;;;;;;;13.10;91.38;101283.76;105570;1256;72655;-57
2023/09/15 03:46:08;;;;;;;6.40;3.80;;;;;;;13.06;91.53;101285.42;105474;1251;69179;-57
2023/09/15 03:48:37;;;;;;;6.10;3.60;;;;;;;13.05;91.66;101283.20;105544;1251;69196;-57
2023/09/15 03:51:05;;;;;;;6.40;3.90;;;;;;;13.06;91.69;101281.24;105547;1251;73643;-57
2023/09/15 03:53:34;;;;;;;5.20;3.90;;;;;;;13.06;91.81;101284.02;105482;1259;83358;-56
2023/09/15 03:56:03;;;;;;;5.70;3.90;;;;;;;13.09;91.84;101286.23;105596;1256;73527;-57
2023/09/15 03:58:32;;;;;;;7.20;4.20;;;;;;;13.10;91.80;101286.54;105565;1251;69181;-58
2023/09/15 04:01:03;;;;;;;6.70;3.80;;;;;;;13.11;91.81;101284.94;105598;1255;69084;-58
2023/09/15 04:03:33;;;;;;;6.50;4.10;;;;;;;13.12;91.96;101289.80;105543;1251;75127;-57
2023/09/15 04:06:03;;;;;;;6.10;3.40;;;;;;;13.11;91.85;101287.02;105489;1257;83320;-60
2023/09/15 04:08:31;;;;;;;;;;;;;;;13.12;91.93;101293.34;105476;1257;73829;-58
2023/09/15 04:11:00;;;;;;;4.50;3.30;;;;;;;13.10;91.94;101296.55;105563;1251;69201;-57
2023/09/15 04:13:29;;;;;;;4.20;2.80;;;;;;;13.09;92.12;101294.30;105510;1257;69170;-57
2023/09/15 04:16:00;;;;;;;8.20;3.80;;;;;;;13.07;92.16;101297.36;105610;1257;73359;-57
2023/09/15 04:18:29;;;;;;;;;;;;;;;13.06;92.31;101301.07;105491;1256;83760;-57
2023/09/15 04:20:57;;;;;;;5.40;3.50;;;;;;;13.03;92.45;101299.56;105620;1251;73135;-57
2023/09/15 04:23:26;;;;;;;5.90;3.40;;;;;;;13.02;92.47;101298.90;105526;1251;69199;-57
2023/09/15 04:25:55;;;;;;;5.80;3.80;;;;;;;13.01;92.47;101297.54;105621;1257;69167;-57
2023/09/15 04:28:23;;;;;;;4.20;3.30;;;;;;;13.01;92.44;101294.91;105559;1256;74196;-57
2023/09/15 04:30:52;;;;;;;6.20;4.20;;;;;;;13.00;92.35;101296.00;105580;1251;81927;-57
2023/09/15 04:33:20;;;;;;;5.80;4.10;;;;;;;12.99;92.39;101297.27;105600;1257;73654;-57
2023/09/15 04:35:49;;;;;;;5.20;3.80;;;;;;;12.97;92.42;101296.11;105585;1256;69203;-57
2023/09/15 04:38:18;;;;;;;6.10;3.60;;;;;;;12.95;92.36;101300.00;105621;1251;69051;-58
2023/09/15 04:40:47;;;;;;;9.60;3.90;;;;;;;12.93;92.13;101306.58;105583;1251;74518;-57
2023/09/15 04:43:17;;;;;;;7.40;4.00;;;;;;;12.90;92.19;101304.02;105654;1251;82143;-57
2023/09/15 04:45:46;;;;;;;6.70;3.90;;;;;;;12.89;92.32;101305.83;105466;1256;73749;-57
2023/09/15 04:48:14;;;;;;;6.20;3.70;;;;;;;12.90;92.64;101309.98;105588;1256;69138;-57
2023/09/15 04:50:43;;;;;;;7.40;4.10;;;;;;;12.92;92.64;101311.87;105570;1256;69195;-57
2023/09/15 04:53:12;;;;;;;6.40;4.00;;;;;;;12.93;92.74;101311.66;105631;1255;75243;-57
2023/09/15 04:55:42;;;;;;;9.40;4.10;;;;;;;12.93;92.59;101317.63;105608;1257;83199;-57
2023/09/15 04:58:11;;;;;;;8.50;4.40;;;;;;;12.93;92.75;101317.63;105439;1257;72716;-57
2023/09/15 05:00:41;;;;;;;7.00;4.60;;;;;;;12.93;92.87;101317.09;105349;1256;69123;-56
2023/09/15 05:03:10;;;;;;;6.40;3.90;;;;;;;12.95;92.88;101316.52;105581;1257;69177;-57
2023/09/15 05:05:39;;;;;;;6.40;4.50;;;;;;;12.94;92.72;101322.67;105656;1251;75049;-56
2023/09/15 05:08:08;;;;;;;6.70;4.20;;;;;;;12.96;92.77;101322.27;105456;1251;82117;-57
2023/09/15 05:10:36;;;;;;;7.00;4.10;;;;;;;12.98;92.96;101323.42;105508;1255;72058;-57
2023/09/15 05:13:05;;;;;;;9.10;4.40;;;;;;;13.01;93.02;101318.23;105572;1251;69180;-56
2023/09/15 05:15:34;;;;;;;5.30;4.20;;;;;;;13.07;93.28;101319.64;105600;1256;69106;-57
2023/09/15 05:18:04;;;;;;;6.10;4.40;;;;;;;13.11;93.08;101320.55;105614;1255;74995;-57
2023/09/15 05:20:33;;;;;;;5.80;4.20;;;;;;;13.13;93.26;101322.77;105602;1256;83165;-56
2023/09/15 05:23:03;;;;;;;8.50;4.30;;;;;;;13.17;93.34;101326.13;105626;1251;72433;-57
2023/09/15 05:25:31;;;;;;;5.40;3.90;;;;;;;13.22;93.60;101327.55;105605;1251;69158;-57
2023/09/15 05:28:01;;;;;;;7.90;4.10;;;;;;;13.29;93.69;101330.89;105483;1251;69117;-57
2023/09/15 05:30:31;;;;;;;8.20;4.60;;;;;;;13.31;93.61;101333.43;105599;1251;73676;-57
2023/09/15 05:33:00;;;;;;;5.40;3.70;;;;;;;13.33;93.49;101332.85;105597;1256;83364;-57
2023/09/15 05:35:29;;;;;;;7.10;4.40;;;;;;;13.32;93.16;101332.70;105540;1251;73685;-57
2023/09/15 05:37:58;;;;;;;7.70;4.10;;;;;;;13.31;93.00;101330.11;105602;1256;69171;-57
2023/09/15 05:40:26;;;;;;;6.60;4.50;;;;;;;13.33;93.19;101328.27;105603;1251;69079;-57
2023/09/15 05:42:57;;;;;;;7.70;4.30;;;;;;;13.37;93.28;101330.08;105580;1251;74883;-56
2023/09/15 05:45:25;;;;;;;8.10;4.80;;;;;;;13.42;93.20;101331.67;105572;1251;81313;-55
2023/09/15 05:47:54;;;;;;;8.80;4.70;;;;;;;13.47;93.48;101330.25;105592;1254;72581;-57
2023/09/15 05:50:23;;;;;;;7.70;4.60;;;;;;;13.57;93.61;101327.45;105604;1251;69097;-55
2023/09/15 05:52:51;;;;;;;7.80;4.80;;;;;;;13.67;93.57;101329.94;105617;1251;69184;-57
2023/09/15 05:55:20;;;;;;;10.70;5.90;;;;;;;13.74;93.43;101330.20;105587;1251;73948;-57
2023/09/15 05:57:48;;;;;;;8.40;5.70;;;;;;;13.81;93.53;101329.77;105553;1256;83147;-57
2023/09/15 06:00:16;;;;;;;9.10;5.90;;;;;;;13.91;93.68;101330.32;105524;1256;73106;-57
2023/09/15 06:02:45;;;;;;;9.00;6.30;;;;;;;14.03;93.96;101329.67;105567;1255;69059;-57
2023/09/15 06:05:14;;;;;;;10.60;7.10;;;;;;;14.15;93.75;101331.69;105628;1251;69859;-57
2023/09/15 06:07:42;;;;;;;8.40;5.90;;;;;;;14.27;93.92;101331.25;105626;1257;75559;-57
2023/09/15 06:10:11;;;;;;;9.40;6.90;;;;;;;14.39;93.77;101335.04;105548;1255;83796;-57
2023/09/15 06:12:39;;;;;;;8.30;5.90;;;;;;;14.50;93.79;101337.09;105559;1255;72656;-57
2023/09/15 06:15:08;;;;;;;8.80;6.00;;;;;;;14.60;93.82;101340.58;105657;1255;69189;-57
2023/09/15 06:17:36;;;;;;;9.20;6.40;;;;;;;14.71;93.72;101340.33;105620;1255;69214;-57
2023/09/15 06:20:06;;;;;;;9.60;6.70;;;;;;;14.78;93.49;101340.24;105562;1251;74814;-57
2023/09/15 06:22:34;;;;;;;10.50;6.00;;;;;;;14.85;93.41;101338.38;105651;1251;81674;-57
2023/09/15 06:25:04;;;;;;;7.60;5.90;;;;;;;14.90;93.20;101338.86;105568;1251;73309;-57
2023/09/15 06:27:35;;;;;;;6.90;6.00;;;;;;;14.92;92.93;101336.84;105602;1255;69209;-57
2023/09/15 06:30:04;;;;;;;8.20;5.60;;;;;;;14.91;92.54;101338.12;105598;1251;69100;-57
2023/09/15 06:32:32;;;;;;;8.60;6.10;;;;;;;14.90;92.73;101338.17;105600;1255;74942;-57
2023/09/15 06:35:01;;;;;;;7.20;5.80;;;;;;;14.95;92.70;101338.17;105579;1256;83323;-58
2023/09/15 06:37:29;;;;;;;9.20;6.60;;;;;;;14.99;92.69;101340.27;105587;1251;72628;-57
2023/09/15 06:39:58;;;;;;;7.90;6.00;;;;;;;15.04;92.58;101337.78;105576;1251;69187;-57
2023/09/15 06:42:27;;;;;;;7.90;6.60;;;;;;;15.07;92.47;101343.27;105603;1256;69173;-57
2023/09/15 06:44:57;;;;;;;8.60;5.70;;;;;;;15.14;92.47;101342.66;105619;1257;74618;-57
2023/09/15 06:47:25;;;;;;;8.60;6.30;;;;;;;15.18;92.29;101339.14;105574;1251;83332;-57
2023/09/15 06:49:54;;;;;;;8.10;6.30;;;;;;;15.22;92.22;101343.56;105549;1256;72683;-58
2023/09/15 06:52:23;;;;;;;8.70;6.00;;;;;;;15.24;92.06;101343.85;105573;1255;69167;-58
2023/09/15 06:54:51;;;;;;;11.50;6.60;;;;;;;15.23;91.93;101344.58;105419;1252;69113;-57
2023/09/15 06:57:20;;;;;;;8.70;6.00;;;;;;;15.23;91.80;101348.48;105599;1251;74816;-57
2023/09/15 06:59:49;;;;;;;10.90;6.40;;;;;;;15.25;92.17;101348.70;105601;1251;82665;-57
2023/09/15 07:02:17;;;;;;;9.60;6.50;;;;;;;15.33;92.44;101350.86;105557;1251;73836;-57
2023/09/15 07:04:46;;;;;;;9.80;6.20;;;;;;;15.39;92.47;101351.80;105572;1256;69171;-57
2023/09/15 07:07:15;;;;;;;8.80;6.70;;;;;;;15.44;92.48;101351.98;105607;1253;69598;-57
2023/09/15 07:09:43;;;;;;;9.70;6.50;;;;;;;15.52;92.83;101354.45;105657;1251;73819;-58
2023/09/15 07:12:11;;;;;;;8.80;6.10;;;;;;;15.60;92.95;101356.58;105604;1256;83349;-57
2023/09/15 07:14:40;;;;;;;8.20;6.40;;;;;;;15.68;92.74;101357.15;105600;1256;73505;-57
2023/09/15 07:17:08;;;;;;;8.00;5.60;;;;;;;15.75;92.83;101356.84;105543;1251;69038;-58
2023/09/15 07:19:37;;;;;;;8.90;5.70;;;;;;;15.85;92.89;101357.30;105589;1256;69117;-57
2023/09/15 07:22:05;;;;;;;8.00;6.00;;;;;;;15.98;93.03;101359.90;105570;1255;74122;-57
2023/09/15 07:24:40;;;;;;;8.40;5.30;;;;;;;16.10;92.78;101362.54;105564;1251;83620;-57
2023/09/15 07:27:09;;;;;;;8.00;5.80;;;;;;;16.25;92.82;101363.96;105579;1251;73713;-57
2023/09/15 07:29:38;;;;;;;7.20;5.10;;;;;;;16.42;92.71;101363.38;105628;1255;69196;-57
2023/09/15 07:32:06;;;;;;;9.20;5.40;;;;;;;16.58;92.70;101364.77;105579;1255;69150;-57
2023/09/15 07:34:35;;;;;;;9.90;5.50;;;;;;;16.67;92.15;101362.38;105634;1256;73275;-57
2023/09/15 07:37:05;;;;;;;9.10;5.40;;;;;;;16.73;91.87;101363.32;105610;1256;82135;-57
2023/09/15 07:39:33;;;;;;;7.60;5.20;;;;;;;16.81;91.87;101363.86;105541;1256;74851;-57
2023/09/15 07:42:03;;;;;;;6.70;4.40;;;;;;;16.89;91.60;101364.35;105553;1251;69164;-58
2023/09/15 07:44:31;;;;;;;6.00;4.20;;;;;;;16.96;91.27;101364.73;105594;1253;69178;-57
2023/09/15 07:46:59;;;;;;;7.40;4.30;;;;;;;17.07;91.31;101364.76;105514;1255;75034;-58
2023/09/15 07:49:28;;;;;;;8.70;4.10;;;;;;;17.18;91.24;101362.44;105576;1255;81822;-58
2023/09/15 07:51:57;;;;;;;7.20;4.40;;;;;;;17.32;91.18;101359.81;105579;1251;73649;-57
2023/09/15 07:54:25;;;;;;;9.50;4.40;;;;;;;17.48;91.24;101358.84;105561;1255;69205;-58
2023/09/15 07:56:54;;;;;;;7.20;4.30;;;;;;;17.63;91.02;101360.91;105586;1251;69244;-57
2023/09/15 07:59:22;;;;;;;6.80;3.80;;;;;;;17.72;90.58;101362.55;105479;1251;136150;-57
2023/09/15 08:01:51;;;;;;;8.00;4.20;;;;;;;17.82;90.48;101360.83;105606;1256;83300;-58
2023/09/15 08:04:20;;;;;;;6.40;3.90;;;;;;;17.93;90.21;101357.92;105630;1251;73707;-57
2023/09/15 08:06:49;;;;;;;5.60;4.20;;;;;;;18.04;89.78;101359.14;105585;1253;69158;-58
2023/09/15 08:09:18;;;;;;;5.20;3.60;;;;;;;18.16;89.60;101358.53;105632;1255;69201;-57
2023/09/15 08:11:46;;;;;;;8.20;4.10;;;;;;;18.26;89.19;101361.67;105658;1251;74654;-58
2023/09/15 08:14:15;;;;;;;7.90;3.70;;;;;;;18.36;88.62;101364.52;105562;1255;83265;-58
2023/09/15 08:16:43;;;;;;;5.50;3.90;;;;;;;18.41;88.38;101362.66;105549;1256;73843;-58
2023/09/15 08:19:12;;;;;;;5.60;4.10;;;;;;;18.50;88.20;101363.55;105575;1253;69126;-58
2023/09/15 08:21:41;;;;;;;5.10;3.90;;;;;;;18.60;87.81;101362.64;105651;1256;69071;-58
2023/09/15 08:24:09;;;;;;;6.00;3.80;;;;;;;18.67;87.27;101364.90;105565;1251;75017;-58
2023/09/15 08:26:38;;;;;;;6.80;4.00;;;;;;;18.74;87.28;101362.92;105573;1256;83557;-58
2023/09/15 08:29:11;;;;;;;10.00;3.70;;;;;;;18.87;87.11;101361.16;105539;1251;73874;-58
2023/09/15 08:31:40;;;;;;;6.80;3.80;;;;;;;18.96;86.82;101358.20;105580;1255;69182;-58
2023/09/15 08:34:09;;;;;;;7.10;3.80;;;;;;;19.08;86.46;101358.23;105610;1255;69135;-58
2023/09/15 08:36:37;;;;;;;8.00;3.90;;;;;;;19.20;86.35;101357.52;105563;1255;73930;-58
2023/09/15 08:39:06;;;;;;;8.40;3.50;;;;;;;19.31;85.88;101359.34;105576;1255;83753;-58
2023/09/15 08:41:39;;;;;;;7.80;4.50;;;;;;;19.41;85.60;101358.79;105576;1251;73424;-58
2023/09/15 08:44:09;;;;;;;6.20;3.90;;;;;;;19.50;85.17;101361.95;105586;1256;69165;-58
2023/09/15 08:46:39;;;;;;;6.00;4.10;;;;;;;19.60;84.91;101358.73;105589;1255;69697;-58
2023/09/15 08:49:08;;;;;;;7.10;4.00;;;;;;;19.71;84.68;101363.23;105592;1255;75084;-58
2023/09/15 08:51:39;;;;;;;6.30;4.10;;;;;;;19.80;83.93;101358.80;105624;1251;82408;-58
2023/09/15 08:54:08;;;;;;;6.30;3.80;;;;;;;19.82;83.49;101353.15;105569;1251;73696;-57
2023/09/15 08:56:36;;;;;;;5.20;3.80;;;;;;;19.97;83.83;101354.05;105623;1252;69330;-58
2023/09/15 08:59:06;;;;;;;7.60;4.40;;;;;;;20.20;83.96;101355.80;105652;1251;69068;-58
2023/09/15 09:01:35;;;;;;;7.00;4.80;;;;;;;20.45;83.70;101354.63;105613;1256;74995;-58
2023/09/15 09:04:04;;;;;;;6.70;4.50;;;;;;;20.56;82.90;101354.27;105497;1251;82495;-58
2023/09/15 09:06:34;;;;;;;6.90;4.40;;;;;;;20.61;82.69;101350.76;105448;1251;72642;-58
2023/09/15 09:09:07;;;;;;;9.20;4.10;;;;;;;20.72;82.65;101354.34;105576;1251;69128;-58
2023/09/15 09:11:35;;;;;;;5.40;4.30;;;;;;;20.81;81.89;101359.77;105656;1252;69177;-58
2023/09/15 09:14:10;;;;;;;7.20;4.40;;;;;;;20.85;81.36;101361.14;105490;1253;75043;-58
2023/09/15 09:16:42;;;;;;;7.80;4.30;;;;;;;20.88;80.83;101361.64;105640;1251;83022;-58
2023/09/15 09:19:12;;;;;;;7.80;4.30;;;;;;;21.02;81.09;101358.09;105594;1256;73457;-58
2023/09/15 09:21:40;;;;;;;8.70;4.30;;;;;;;21.19;80.71;101358.73;105571;1251;69093;-57
2023/09/15 09:24:09;;;;;;;6.90;4.70;;;;;;;21.27;79.89;101355.02;105573;1251;69134;-58
2023/09/15 09:26:38;;;;;;;11.60;4.80;;;;;;;21.23;79.12;101355.97;105618;1251;74896;-58
2023/09/15 09:29:06;;;;;;;8.20;4.50;;;;;;;21.17;78.79;101359.39;105628;1251;82971;-58
2023/09/15 09:31:35;;;;;;;6.90;4.40;;;;;;;21.13;78.42;101357.14;105578;1251;73507;-58
2023/09/15 09:34:04;;;;;;;7.70;4.40;;;;;;;21.16;78.07;101363.68;105610;1256;69188;-58
2023/09/15 09:36:32;;;;;;;5.70;4.00;;;;;;;21.22;77.95;101361.88;105560;1255;69112;-58
2023/09/15 09:39:01;;;;;;;7.00;3.80;;;;;;;21.27;77.70;101358.20;105616;1251;75005;-58
2023/09/15 09:41:29;;;;;;;6.30;4.00;;;;;;;21.28;77.59;101356.86;105523;1253;82465;-58
2023/09/15 09:44:03;;;;;;;5.70;3.50;;;;;;;21.30;77.34;101354.58;105622;1251;73130;-58
2023/09/15 09:46:32;;;;;;;6.60;3.40;;;;;;;21.32;77.21;101355.16;105591;1256;69730;-58
2023/09/15 09:49:03;;;;;;;6.10;3.20;;;;;;;21.39;76.97;101353.33;105610;1252;69145;-58
2023/09/15 09:51:32;;;;;;;5.40;3.50;;;;;;;21.40;76.35;101350.46;105589;1251;75029;-58
2023/09/15 09:54:01;;;;;;;4.60;2.80;;;;;;;21.38;76.05;101350.57;105349;1251;83353;-58
2023/09/15 09:56:35;;;;;;;5.20;3.10;;;;;;;21.39;75.84;101351.35;105632;1256;72682;-58
2023/09/15 09:59:12;;;;;;;3.90;3.00;;;;;;;21.39;75.70;101352.08;105581;1251;69002;-58
2023/09/15 10:01:41;;;;;;;3.40;2.50;;;;;;;21.47;76.00;101345.13;105629;1255;69183;-58
2023/09/15 10:04:10;;;;;;;6.60;3.00;;;;;;;21.57;75.66;101352.07;105625;1255;74042;-58
2023/09/15 10:06:39;;;;;;;5.10;3.20;;;;;;;21.67;75.59;101351.64;105638;1255;83357;-58
2023/09/15 10:09:08;;;;;;;4.10;2.90;;;;;;;21.74;75.13;101343.45;105635;1251;72606;-58
2023/09/15 10:11:36;;;;;;;5.20;3.00;;;;;;;21.79;74.34;101342.02;105580;1255;69212;-58
2023/09/15 10:14:06;;;;;;;6.10;3.30;;;;;;;21.81;73.78;101337.13;105609;1256;69203;-58
2023/09/15 10:16:35;;;;;;;;;;;;;;;21.87;73.39;101332.95;105623;1253;74359;-58
2023/09/15 10:19:03;;;;;;;6.60;2.60;;;;;;;22.04;73.29;101329.81;105622;1252;82487;-58
2023/09/15 10:21:34;;;;;;;5.20;2.80;;;;;;;22.22;73.27;101323.20;105436;1251;72433;-58
2023/09/15 10:24:07;;;;;;;6.20;2.70;;;;;;;22.38;73.08;101322.92;105592;1251;69068;-58
2023/09/15 10:26:41;;;;;;;6.50;3.10;;;;;;;22.45;72.52;101323.36;105650;1255;69247;-58
2023/09/15 10:29:13;;;;;;;5.10;2.70;;;;;;;22.34;71.63;101322.01;105616;1255;73485;-58
2023/09/15 10:31:44;;;;;;;5.50;2.60;;;;;;;22.23;71.42;101324.05;105417;1253;82942;-57
2023/09/15 10:34:14;;;;;;;4.70;2.90;;;;;;;22.21;71.49;101326.33;105594;1256;73755;-58
2023/09/15 10:36:43;;;;;;;5.30;3.10;;;;;;;22.17;70.69;101327.13;105602;1251;69471;-58
2023/09/15 10:39:14;;;;;;;7.10;2.90;;;;;;;22.08;70.25;101327.56;105591;1255;69777;-58
2023/09/15 10:41:43;;;;;;;4.40;2.40;;;;;;;22.00;70.10;101325.13;105605;1255;74815;-58
2023/09/15 10:44:12;;;;;;;6.50;2.70;;;;;;;22.02;70.04;101319.63;105586;1251;82280;-58
2023/09/15 10:46:43;;;;;;;5.80;2.80;;;;;;;22.02;70.09;101322.25;105617;1251;72359;-58
2023/09/15 10:49:22;;;;;;;3.40;2.40;;;;;;;21.97;69.45;101319.79;105604;1251;69200;-58
2023/09/15 10:51:55;;;;;;;5.40;2.60;;;;;;;21.96;69.31;101318.10;105639;1252;69177;-58
2023/09/15 10:54:25;;;;;;;4.30;2.70;;;;;;;21.96;68.99;101319.87;105620;1252;73921;-58
2023/09/15 10:56:54;;;;;;;5.90;2.10;;;;;;;21.88;68.56;101322.63;105612;1251;82642;-58
2023/09/15 10:59:25;;;;;;;4.00;2.40;;;;;;;21.84;68.67;101323.59;105621;1251;73841;-58
2023/09/15 11:01:54;;;;;;;4.40;2.40;;;;;;;21.79;68.61;101325.65;105558;1252;69139;-58
2023/09/15 11:04:22;;;;;;;5.10;2.00;;;;;;;21.80;68.68;101323.61;105626;1251;69093;-58
2023/09/15 11:06:52;;;;;;;3.40;2.00;;;;;;;21.88;68.70;101319.86;105619;1251;74784;-58
2023/09/15 11:09:25;;;;;;;5.30;2.60;;;;;;;21.92;68.32;101320.48;105585;1251;83356;-58
2023/09/15 11:11:54;;;;;;;5.00;2.30;;;;;;;21.97;68.20;101318.70;105565;1253;73870;-58
2023/09/15 11:14:23;;;;;;;2.80;2.00;;;;;;;22.01;67.68;101317.57;105604;1256;69156;-58
2023/09/15 11:16:57;;;;;;;4.00;2.10;;;;;;;22.08;67.83;101317.75;105575;1252;69199;-58
2023/09/15 11:19:30;;;;;;;3.50;2.00;;;;;;;22.20;67.25;101311.42;105634;1251;74942;-58
2023/09/15 11:22:03;;;;;;;3.70;1.70;;;;;;;22.28;66.79;101313.38;105606;1255;83341;-58
2023/09/15 11:24:33;;;;;;;5.80;2.40;;;;;;;22.29;66.73;101309.57;105589;1251;73521;-58
2023/09/15 11:27:02;;;;;;;4.10;2.20;;;;;;;22.34;66.33;101306.67;105578;1255;69137;-58